createdAt,value
2019-04-16T00:00:02.597Z,62.3
2019-04-16T00:00:52.926Z,62.3
2019-04-16T00:01:48.514Z,62.3
2019-04-16T00:02:33.410Z,62.3
2019-04-16T00:03:28.167Z,62.3
2019-04-16T00:04:12.879Z,62.3
2019-04-16T00:05:03.460Z,62.3
2019-04-16T00:05:53.363Z,62.3
2019-04-16T00:06:43.074Z,62.3
2019-04-16T00:07:33.111Z,62.3
2019-04-16T00:08:31.991Z,62.3
2019-04-16T00:09:12.673Z,62.3
2019-04-16T00:10:04.033Z,62.3
2019-04-16T00:10:53.520Z,62.3
2019-04-16T00:11:43.699Z,62.3
2019-04-16T00:12:32.918Z,62.3
2019-04-16T00:13:23.841Z,62.3
2019-04-16T00:14:12.776Z,62.3
2019-04-16T00:15:04.350Z,62.3
2019-04-16T00:15:54.000Z,62.2
2019-04-16T00:16:48.821Z,62.3
2019-04-16T00:17:34.396Z,62.2
2019-04-16T00:18:24.505Z,62.2
2019-04-16T00:19:13.993Z,62.2
2019-04-16T00:20:10.348Z,62.2
2019-04-16T00:20:54.670Z,62.2
2019-04-16T00:21:45.099Z,62.2
2019-04-16T00:22:34.498Z,62.1
2019-04-16T00:23:24.833Z,62.1
2019-04-16T00:24:20.484Z,62.1
2019-04-16T00:25:04.805Z,62.1
2019-04-16T00:25:59.787Z,62.1
2019-04-16T00:26:44.540Z,62.1
2019-04-16T00:27:35.150Z,62.1
2019-04-16T00:28:24.627Z,62.1
2019-04-16T00:29:15.259Z,62.1
2019-04-16T00:30:09.912Z,62.1
2019-04-16T00:30:55.223Z,62.1
2019-04-16T00:31:45.449Z,62.1
2019-04-16T00:32:39.959Z,62.1
2019-04-16T00:33:24.721Z,62.1
2019-04-16T00:34:18.578Z,62.1
2019-04-16T00:35:05.927Z,62.1
2019-04-16T00:35:55.889Z,62.1
2019-04-16T00:36:50.877Z,62.1
2019-04-16T00:37:35.899Z,62.1
2019-04-16T00:38:42.752Z,62.1
2019-04-16T00:39:15.789Z,62
2019-04-16T00:40:05.610Z,62.1
2019-04-16T00:41:00.699Z,62.1
2019-04-16T00:41:45.462Z,62
2019-04-16T00:42:36.264Z,62
2019-04-16T00:43:26.014Z,62
2019-04-16T00:44:15.882Z,62
2019-04-16T00:45:06.744Z,62
2019-04-16T00:45:56.142Z,62
2019-04-16T00:46:46.044Z,62
2019-04-16T00:47:35.806Z,62
2019-04-16T00:48:26.114Z,62
2019-04-16T00:49:16.076Z,62
2019-04-16T00:50:06.565Z,61.9
2019-04-16T00:50:56.906Z,61.9
2019-04-16T00:51:46.420Z,61.9
2019-04-16T00:52:41.476Z,61.9
2019-04-16T00:53:26.746Z,61.9
2019-04-16T00:54:16.278Z,61.9
2019-04-16T00:55:06.738Z,61.9
2019-04-16T00:55:56.101Z,61.9
2019-04-16T00:56:51.336Z,61.9
2019-04-16T00:57:36.831Z,61.9
2019-04-16T00:58:26.863Z,61.9
2019-04-16T00:59:16.341Z,61.9
2019-04-16T01:00:07.601Z,61.9
2019-04-16T01:00:57.106Z,61.9
2019-04-16T01:01:47.360Z,61.9
2019-04-16T01:02:37.443Z,61.9
2019-04-16T01:03:27.216Z,61.9
2019-04-16T01:04:17.338Z,61.8
2019-04-16T01:05:07.675Z,61.8
2019-04-16T01:05:57.845Z,61.9
2019-04-16T01:06:47.720Z,61.9
2019-04-16T01:07:36.963Z,61.8
2019-04-16T01:08:27.590Z,61.8
2019-04-16T01:09:17.962Z,61.8
2019-04-16T01:10:08.012Z,61.8
2019-04-16T01:10:58.562Z,61.8
2019-04-16T01:11:53.298Z,61.8
2019-04-16T01:12:37.950Z,61.8
2019-04-16T01:13:29.737Z,61.8
2019-04-16T01:14:18.292Z,61.8
2019-04-16T01:15:08.217Z,61.8
2019-04-16T01:16:04.630Z,61.8
2019-04-16T01:16:48.498Z,61.8
2019-04-16T01:17:40.869Z,61.8
2019-04-16T01:18:28.030Z,61.8
2019-04-16T01:19:18.105Z,61.8
2019-04-16T01:20:15.061Z,61.8
2019-04-16T01:20:58.810Z,61.8
2019-04-16T01:21:49.697Z,61.7
2019-04-16T01:22:38.634Z,61.7
2019-04-16T01:23:29.268Z,61.7
2019-04-16T01:24:24.677Z,61.7
2019-04-16T01:25:09.200Z,61.7
2019-04-16T01:26:01.562Z,61.7
2019-04-16T01:26:49.474Z,61.7
2019-04-16T01:27:38.991Z,61.6
2019-04-16T01:28:34.551Z,61.7
2019-04-16T01:29:18.826Z,61.6
2019-04-16T01:30:11.264Z,61.7
2019-04-16T01:30:59.754Z,61.6
2019-04-16T01:31:49.559Z,61.6
2019-04-16T01:32:44.094Z,61.6
2019-04-16T01:33:29.208Z,61.6
2019-04-16T01:34:22.999Z,61.6
2019-04-16T01:35:24.749Z,61.6
2019-04-16T01:35:59.823Z,61.6
2019-04-16T01:36:55.836Z,61.6
2019-04-16T01:37:39.193Z,61.6
2019-04-16T01:38:33.068Z,61.6
2019-04-16T01:39:22.773Z,61.6
2019-04-16T01:40:10.202Z,61.6
2019-04-16T01:40:59.983Z,61.6
2019-04-16T01:41:55.835Z,61.6
2019-04-16T01:42:40.381Z,61.6
2019-04-16T01:43:31.276Z,61.6
2019-04-16T01:44:19.646Z,61.6
2019-04-16T01:45:10.861Z,61.6
2019-04-16T01:46:06.680Z,61.6
2019-04-16T01:46:50.136Z,61.5
2019-04-16T01:47:41.795Z,61.5
2019-04-16T01:48:31.045Z,61.5
2019-04-16T01:49:21.113Z,61.5
2019-04-16T01:50:16.545Z,61.5
2019-04-16T01:51:01.043Z,61.5
2019-04-16T01:51:52.060Z,61.5
2019-04-16T01:52:40.872Z,61.5
2019-04-16T01:53:30.888Z,61.5
2019-04-16T01:54:26.728Z,61.5
2019-04-16T01:55:11.818Z,61.5
2019-04-16T01:56:03.103Z,61.4
2019-04-16T01:56:51.121Z,61.4
2019-04-16T01:57:41.474Z,61.4
2019-04-16T01:58:37.092Z,61.4
2019-04-16T01:59:21.579Z,61.4
2019-04-16T02:00:13.422Z,61.4
2019-04-16T02:01:01.835Z,61.4
2019-04-16T02:01:51.245Z,61.4
2019-04-16T02:02:47.585Z,61.4
2019-04-16T02:03:31.715Z,61.4
2019-04-16T02:04:24.423Z,61.6
2019-04-16T02:05:11.912Z,61.9
2019-04-16T02:06:02.703Z,61.9
2019-04-16T02:06:57.100Z,62.1
2019-04-16T02:07:41.752Z,62.3
2019-04-16T02:08:35.027Z,62.3
2019-04-16T02:09:27.554Z,62.3
2019-04-16T02:10:12.569Z,62.4
2019-04-16T02:11:02.456Z,62.4
2019-04-16T02:11:52.267Z,62.4
2019-04-16T02:12:47.945Z,62.4
2019-04-16T02:13:32.354Z,62.4
2019-04-16T02:14:25.998Z,62.4
2019-04-16T02:15:13.156Z,62.4
2019-04-16T02:16:03.024Z,62.4
2019-04-16T02:16:58.681Z,62.4
2019-04-16T02:17:42.668Z,62.5
2019-04-16T02:18:34.829Z,62.6
2019-04-16T02:19:23.066Z,62.7
2019-04-16T02:20:13.756Z,62.7
2019-04-16T02:21:03.505Z,62.8
2019-04-16T02:21:52.985Z,62.8
2019-04-16T02:22:48.854Z,62.8
2019-04-16T02:23:33.368Z,62.8
2019-04-16T02:24:23.189Z,62.8
2019-04-16T02:25:16.416Z,62.8
2019-04-16T02:26:04.136Z,62.8
2019-04-16T02:26:58.908Z,62.8
2019-04-16T02:27:43.948Z,62.8
2019-04-16T02:28:32.911Z,62.8
2019-04-16T02:29:23.794Z,62.8
2019-04-16T02:30:13.739Z,62.8
2019-04-16T02:31:04.650Z,62.9
2019-04-16T02:31:56.908Z,63
2019-04-16T02:32:43.911Z,63
2019-04-16T02:33:34.301Z,63
2019-04-16T02:34:24.312Z,63
2019-04-16T02:35:13.607Z,63
2019-04-16T02:36:04.988Z,63
2019-04-16T02:37:03.121Z,63.1
2019-04-16T02:37:44.485Z,63
2019-04-16T02:38:34.803Z,63
2019-04-16T02:39:52.940Z,63
2019-04-16T02:40:22.294Z,63
2019-04-16T02:41:04.852Z,63
2019-04-16T02:42:03.747Z,63
2019-04-16T02:42:44.753Z,63
2019-04-16T02:43:44.252Z,63
2019-04-16T02:44:24.463Z,63
2019-04-16T02:45:22.437Z,63
2019-04-16T02:46:05.945Z,63.1
2019-04-16T02:46:55.099Z,63.3
2019-04-16T02:47:46.971Z,63.5
2019-04-16T02:48:35.395Z,63.5
2019-04-16T02:49:29.250Z,63.6
2019-04-16T02:50:14.997Z,63.6
2019-04-16T02:51:12.775Z,63.6
2019-04-16T02:51:55.215Z,63.6
2019-04-16T02:52:55.079Z,63.6
2019-04-16T02:53:35.882Z,63.6
2019-04-16T02:54:34.329Z,63.6
2019-04-16T02:55:16.699Z,63.6
2019-04-16T02:56:05.912Z,63.6
2019-04-16T02:56:57.320Z,63.6
2019-04-16T02:57:46.318Z,63.6
2019-04-16T02:58:39.240Z,63.6
2019-04-16T02:59:25.761Z,63.6
2019-04-16T03:00:21.211Z,63.6
2019-04-16T03:01:06.022Z,63.6
2019-04-16T03:01:56.771Z,63.6
2019-04-16T03:02:46.536Z,63.6
2019-04-16T03:03:36.311Z,63.6
2019-04-16T03:07:07.211Z,63.6
2019-04-16T03:07:51.028Z,63.6
2019-04-16T03:08:40.393Z,63.6
2019-04-16T03:09:31.413Z,63.6
2019-04-16T03:10:21.478Z,63.6
2019-04-16T03:11:18.936Z,63.6
2019-04-16T03:12:01.053Z,63.6
2019-04-16T03:12:57.281Z,63.6
2019-04-16T03:13:42.000Z,63.6
2019-04-16T03:14:34.654Z,63.6
2019-04-16T03:15:21.591Z,63.6
2019-04-16T03:16:12.826Z,63.6
2019-04-16T03:17:02.336Z,63.6
2019-04-16T03:17:51.758Z,63.6
2019-04-16T03:18:48.355Z,63.6
2019-04-16T03:19:32.146Z,63.6
2019-04-16T03:20:28.445Z,63.6
2019-04-16T03:21:12.598Z,63.6
2019-04-16T03:22:07.666Z,63.6
2019-04-16T03:22:52.093Z,63.6
2019-04-16T03:23:42.178Z,63.6
2019-04-16T03:24:31.693Z,63.6
2019-04-16T03:25:22.120Z,63.6
2019-04-16T03:26:19.192Z,63.6
2019-04-16T03:27:06.890Z,63.6
2019-04-16T03:27:58.570Z,63.6
2019-04-16T03:28:42.806Z,63.6
2019-04-16T03:29:35.987Z,63.6
2019-04-16T03:30:22.463Z,63.6
2019-04-16T03:31:27.216Z,63.6
2019-04-16T03:32:04.622Z,63.6
2019-04-16T03:32:53.818Z,63.6
2019-04-16T03:33:54.711Z,63.6
2019-04-16T03:34:33.260Z,63.6
2019-04-16T03:35:29.488Z,63.6
2019-04-16T03:36:13.750Z,63.6
2019-04-16T03:37:07.202Z,63.6
2019-04-16T03:37:53.215Z,63.6
2019-04-16T03:38:46.926Z,63.6
2019-04-16T03:39:33.638Z,63.6
2019-04-16T03:40:30.244Z,63.5
2019-04-16T03:41:14.663Z,63.6
2019-04-16T03:42:04.279Z,63.6
2019-04-16T03:43:02.363Z,63.6
2019-04-16T03:43:43.337Z,63.5
2019-04-16T03:44:40.150Z,63.5
2019-04-16T03:45:24.379Z,63.5
2019-04-16T03:46:18.229Z,63.5
2019-04-16T03:47:03.828Z,63.5
2019-04-16T03:47:56.281Z,63.5
2019-04-16T03:48:44.251Z,63.5
2019-04-16T03:49:33.231Z,63.5
2019-04-16T03:50:24.151Z,63.5
2019-04-16T03:51:14.511Z,63.5
2019-04-16T03:52:11.634Z,63.4
2019-04-16T03:52:54.339Z,63.4
2019-04-16T03:53:50.867Z,63.4
2019-04-16T03:54:33.894Z,63.4
2019-04-16T03:55:30.884Z,63.4
2019-04-16T03:56:14.478Z,63.4
2019-04-16T03:57:07.758Z,63.4
2019-04-16T03:57:55.007Z,63.4
2019-04-16T03:58:44.713Z,63.4
2019-04-16T03:59:35.126Z,63.4
2019-04-16T04:00:25.169Z,63.4
2019-04-16T04:01:19.701Z,63.4
2019-04-16T04:02:05.634Z,63.4
2019-04-16T04:02:59.527Z,63.4
2019-04-16T04:03:44.534Z,63.4
2019-04-16T04:04:35.433Z,63.4
2019-04-16T04:05:25.495Z,63.4
2019-04-16T04:06:15.865Z,63.4
2019-04-16T04:07:05.497Z,63.4
2019-04-16T04:07:59.358Z,63.4
2019-04-16T04:08:55.212Z,63.4
2019-04-16T04:09:35.775Z,63.3
2019-04-16T04:10:41.522Z,63.3
2019-04-16T04:11:16.192Z,63.3
2019-04-16T04:12:05.794Z,63.3
2019-04-16T04:12:55.806Z,63.3
2019-04-16T04:13:51.655Z,63.3
2019-04-16T04:14:36.452Z,63.3
2019-04-16T04:15:31.347Z,63.3
2019-04-16T04:16:16.882Z,63.3
2019-04-16T04:17:12.067Z,63.3
2019-04-16T04:17:56.145Z,63.3
2019-04-16T04:18:48.360Z,63.3
2019-04-16T04:19:36.812Z,63.3
2019-04-16T04:20:25.736Z,63.3
2019-04-16T04:21:22.555Z,63.3
2019-04-16T04:22:06.152Z,63.3
2019-04-16T04:23:01.968Z,63.3
2019-04-16T04:23:46.587Z,63.3
2019-04-16T04:24:36.351Z,63.3
2019-04-16T04:25:27.252Z,63.3
2019-04-16T04:26:17.307Z,63.3
2019-04-16T04:27:07.594Z,63.2
2019-04-16T04:27:57.411Z,63.2
2019-04-16T04:28:53.176Z,63.2
2019-04-16T04:29:36.731Z,63.2
2019-04-16T04:30:33.761Z,63.2
2019-04-16T04:31:17.419Z,63.2
2019-04-16T04:32:08.960Z,63.2
2019-04-16T04:32:57.837Z,63.2
2019-04-16T04:33:47.731Z,63.1
2019-04-16T04:34:38.023Z,63.2
2019-04-16T04:35:28.037Z,63.1
2019-04-16T04:36:29.594Z,63.1
2019-04-16T04:37:07.798Z,63.1
2019-04-16T04:38:00.699Z,63.1
2019-04-16T04:38:47.946Z,63.1
2019-04-16T04:39:38.441Z,63.1
2019-04-16T04:40:28.434Z,63.1
2019-04-16T04:41:25.011Z,63.1
2019-04-16T04:42:08.993Z,63.1
2019-04-16T04:43:05.099Z,63.1
2019-04-16T04:43:48.872Z,63.1
2019-04-16T04:44:41.587Z,63.1
2019-04-16T04:45:28.689Z,63.1
2019-04-16T04:46:20.361Z,63.1
2019-04-16T04:47:09.043Z,63.1
2019-04-16T04:47:58.593Z,63
2019-04-16T04:48:48.378Z,63.1
2019-04-16T04:49:38.135Z,63
2019-04-16T04:50:28.283Z,63
2019-04-16T04:51:18.642Z,63
2019-04-16T04:52:14.921Z,63
2019-04-16T04:52:58.937Z,63
2019-04-16T04:53:54.950Z,63
2019-04-16T04:54:38.785Z,63
2019-04-16T04:55:30.683Z,62.9
2019-04-16T04:56:29.217Z,63
2019-04-16T04:57:09.294Z,62.9
2019-04-16T04:58:03.978Z,62.9
2019-04-16T04:58:49.643Z,62.9
2019-04-16T04:59:41.047Z,62.9
2019-04-16T05:00:29.492Z,62.9
2019-04-16T05:01:19.960Z,62.9
2019-04-16T05:02:15.987Z,62.9
2019-04-16T05:02:59.117Z,62.9
2019-04-16T05:03:52.690Z,62.9
2019-04-16T05:04:39.517Z,62.9
2019-04-16T05:05:30.524Z,62.9
2019-04-16T05:06:20.459Z,62.9
2019-04-16T05:07:09.440Z,62.9
2019-04-16T05:08:04.539Z,62.9
2019-04-16T05:08:49.892Z,62.9
2019-04-16T05:09:41.358Z,62.8
2019-04-16T05:10:29.399Z,62.8
2019-04-16T05:11:21.766Z,62.8
2019-04-16T05:12:12.769Z,62.8
2019-04-16T05:13:00.111Z,62.8
2019-04-16T05:13:49.659Z,62.8
2019-04-16T05:14:40.556Z,62.8
2019-04-16T05:15:33.906Z,62.8
2019-04-16T05:16:20.391Z,62.8
2019-04-16T05:17:11.497Z,62.8
2019-04-16T05:18:00.754Z,62.8
2019-04-16T05:18:49.999Z,62.8
2019-04-16T05:19:43.697Z,62.8
2019-04-16T05:20:34.692Z,62.8
2019-04-16T05:21:23.743Z,62.8
2019-04-16T05:22:10.856Z,62.8
2019-04-16T05:23:02.651Z,62.8
2019-04-16T05:23:51.189Z,62.8
2019-04-16T05:24:42.690Z,62.8
2019-04-16T05:25:37.283Z,62.8
2019-04-16T05:26:21.533Z,62.7
2019-04-16T05:27:13.828Z,62.8
2019-04-16T05:28:01.758Z,62.7
2019-04-16T05:28:51.843Z,62.7
2019-04-16T05:29:41.303Z,62.7
2019-04-16T05:30:31.096Z,62.7
2019-04-16T05:31:30.831Z,62.7
2019-04-16T05:32:11.998Z,62.7
2019-04-16T05:33:07.726Z,62.7
2019-04-16T05:33:52.185Z,62.7
2019-04-16T05:34:42.535Z,62.7
2019-04-16T05:35:31.210Z,62.6
2019-04-16T05:36:26.110Z,62.6
2019-04-16T05:37:12.757Z,62.6
2019-04-16T05:38:01.661Z,62.6
2019-04-16T05:38:57.670Z,62.6
2019-04-16T05:39:42.316Z,62.6
2019-04-16T05:40:39.442Z,62.6
2019-04-16T05:41:27.220Z,62.6
2019-04-16T05:42:12.170Z,62.6
2019-04-16T05:43:03.470Z,62.6
2019-04-16T05:43:52.095Z,62.6
2019-04-16T05:44:42.157Z,62.6
2019-04-16T05:45:38.427Z,62.6
2019-04-16T05:46:22.355Z,62.6
2019-04-16T05:47:19.402Z,62.6
2019-04-16T05:48:02.790Z,62.6
2019-04-16T05:48:58.267Z,62.6
2019-04-16T05:49:43.350Z,62.6
2019-04-16T05:50:34.501Z,62.6
2019-04-16T05:51:23.489Z,62.6
2019-04-16T05:52:13.481Z,62.5
2019-04-16T05:53:12.766Z,62.5
2019-04-16T05:53:52.811Z,62.5
2019-04-16T05:54:49.694Z,62.5
2019-04-16T05:55:33.209Z,62.5
2019-04-16T05:56:28.697Z,62.5
2019-04-16T05:57:13.296Z,62.5
2019-04-16T05:58:03.656Z,62.5
2019-04-16T05:58:53.178Z,62.5
2019-04-16T05:59:44.059Z,62.4
2019-04-16T06:00:33.906Z,62.5
2019-04-16T06:01:24.164Z,62.4
2019-04-16T06:02:21.774Z,62.4
2019-04-16T06:03:04.013Z,62.4
2019-04-16T06:05:01.179Z,62.4
2019-04-16T06:05:51.189Z,62.4
2019-04-16T06:06:40.929Z,62.4
2019-04-16T06:07:31.159Z,62.4
2019-04-16T06:08:21.136Z,62.4
2019-04-16T06:09:18.327Z,62.4
2019-04-16T06:10:01.783Z,62.4
2019-04-16T06:10:58.881Z,62.4
2019-04-16T06:11:41.904Z,62.4
2019-04-16T06:12:39.503Z,62.4
2019-04-16T06:13:22.006Z,62.4
2019-04-16T06:14:19.652Z,62.4
2019-04-16T06:15:01.704Z,62.4
2019-04-16T06:15:56.919Z,62.3
2019-04-16T06:16:41.726Z,62.4
2019-04-16T06:17:37.021Z,62.3
2019-04-16T06:18:23.407Z,62.3
2019-04-16T06:19:16.853Z,62.3
2019-04-16T06:20:02.095Z,62.3
2019-04-16T06:20:57.535Z,62.3
2019-04-16T06:21:42.305Z,62.3
2019-04-16T06:22:34.270Z,62.3
2019-04-16T06:23:21.295Z,62.3
2019-04-16T06:24:12.303Z,62.3
2019-04-16T06:25:12.703Z,62.3
2019-04-16T06:25:52.885Z,62.3
2019-04-16T06:26:48.321Z,62.3
2019-04-16T06:27:32.729Z,62.3
2019-04-16T06:28:22.317Z,62.3
2019-04-16T06:29:12.165Z,62.3
2019-04-16T06:30:07.040Z,62.3
2019-04-16T06:30:52.978Z,62.3
2019-04-16T06:31:44.758Z,62.3
2019-04-16T06:32:32.934Z,62.2
2019-04-16T06:33:22.922Z,62.2
2019-04-16T06:34:12.660Z,62.2
2019-04-16T06:35:03.051Z,62.2
2019-04-16T06:35:53.334Z,62.2
2019-04-16T06:36:43.732Z,62.2
2019-04-16T06:37:33.457Z,62.2
2019-04-16T06:38:23.100Z,62.2
2019-04-16T06:39:13.589Z,62.2
2019-04-16T06:40:06.213Z,62.2
2019-04-16T06:40:53.737Z,62.2
2019-04-16T06:41:55.609Z,62.1
2019-04-16T06:42:33.295Z,62.1
2019-04-16T06:43:30.481Z,62.1
2019-04-16T06:44:13.966Z,62.1
2019-04-16T06:45:09.949Z,62.1
2019-04-16T06:45:54.081Z,62.1
2019-04-16T06:46:44.762Z,62.1
2019-04-16T06:47:33.916Z,62.1
2019-04-16T06:48:23.950Z,62.1
2019-04-16T06:49:21.266Z,62.1
2019-04-16T06:50:04.712Z,62.1
2019-04-16T06:50:54.426Z,62.1
2019-04-16T06:51:49.109Z,62.1
2019-04-16T06:52:34.286Z,62.1
2019-04-16T06:53:32.911Z,62.1
2019-04-16T06:54:16.158Z,62.1
2019-04-16T06:55:08.488Z,62
2019-04-16T06:55:54.803Z,62.1
2019-04-16T06:56:45.334Z,62
2019-04-16T06:57:34.924Z,62
2019-04-16T06:58:29.928Z,62
2019-04-16T06:59:19.061Z,62
2019-04-16T07:00:11.263Z,62
2019-04-16T07:00:54.958Z,62
2019-04-16T07:01:46.861Z,62
2019-04-16T07:03:03.519Z,62
2019-04-16T07:05:06.145Z,61.9
2019-04-16T07:05:51.457Z,61.9
2019-04-16T07:06:44.916Z,61.9
2019-04-16T07:07:49.902Z,61.9
2019-04-16T07:08:40.310Z,61.9
2019-04-16T07:09:10.285Z,61.9
2019-04-16T07:10:01.992Z,61.9
2019-04-16T07:10:51.628Z,61.9
2019-04-16T07:11:55.947Z,61.9
2019-04-16T07:12:31.919Z,61.9
2019-04-16T07:13:21.458Z,61.9
2019-04-16T07:14:19.605Z,61.9
2019-04-16T07:15:01.607Z,61.9
2019-04-16T07:15:58.403Z,61.9
2019-04-16T07:16:42.164Z,61.9
2019-04-16T07:17:41.960Z,61.9
2019-04-16T07:18:25.679Z,61.9
2019-04-16T07:19:19.709Z,61.9
2019-04-16T07:20:06.082Z,61.9
2019-04-16T07:20:52.212Z,61.8
2019-04-16T07:21:42.168Z,61.8
2019-04-16T07:22:32.190Z,61.8
2019-04-16T07:23:29.254Z,61.8
2019-04-16T07:24:12.918Z,61.8
2019-04-16T07:25:10.893Z,61.8
2019-04-16T07:25:55.078Z,61.8
2019-04-16T07:26:57.297Z,61.8
2019-04-16T07:27:42.332Z,61.8
2019-04-16T07:28:30.550Z,61.8
2019-04-16T07:29:14.596Z,61.8
2019-04-16T07:30:14.187Z,61.8
2019-04-16T07:30:53.854Z,61.8
2019-04-16T07:31:43.746Z,61.8
2019-04-16T07:32:33.767Z,61.8
2019-04-16T07:33:23.377Z,61.8
2019-04-16T07:34:12.779Z,61.8
2019-04-16T07:35:03.518Z,61.8
2019-04-16T07:35:53.633Z,61.8
2019-04-16T07:36:43.091Z,61.8
2019-04-16T07:37:37.055Z,61.8
2019-04-16T07:38:22.389Z,61.7
2019-04-16T07:39:38.460Z,61.7
2019-04-16T07:40:11.089Z,61.7
2019-04-16T07:40:54.059Z,61.7
2019-04-16T07:41:47.935Z,61.7
2019-04-16T07:42:33.766Z,61.7
2019-04-16T07:44:10.362Z,61.7
2019-04-16T07:44:47.258Z,61.7
2019-04-16T07:45:37.043Z,61.6
2019-04-16T07:46:26.893Z,61.7
2019-04-16T07:47:22.963Z,61.6
2019-04-16T07:48:11.543Z,61.6
2019-04-16T07:49:00.430Z,61.6
2019-04-16T07:50:04.043Z,61.6
2019-04-16T07:50:38.111Z,61.6
2019-04-16T07:51:27.765Z,61.6
2019-04-16T07:52:17.772Z,61.6
2019-04-16T07:53:10.866Z,61.6
2019-04-16T07:53:58.031Z,61.6
2019-04-16T07:54:47.692Z,61.6
2019-04-16T07:55:37.757Z,61.6
2019-04-16T07:56:27.820Z,61.6
2019-04-16T07:57:17.872Z,61.6
2019-04-16T07:58:08.315Z,61.6
2019-04-16T07:59:04.722Z,61.6
2019-04-16T07:59:48.150Z,61.6
2019-04-16T08:00:44.469Z,61.6
2019-04-16T08:01:27.372Z,61.6
2019-04-16T08:02:25.537Z,61.6
2019-04-16T08:03:09.666Z,61.5
2019-04-16T08:04:07.716Z,61.6
2019-04-16T08:04:48.420Z,61.5
2019-04-16T08:05:44.763Z,61.5
2019-04-16T08:06:28.829Z,61.5
2019-04-16T08:07:24.493Z,61.5
2019-04-16T08:08:09.193Z,61.5
2019-04-16T08:09:02.744Z,61.5
2019-04-16T08:09:48.792Z,61.5
2019-04-16T08:10:39.149Z,61.4
2019-04-16T08:11:28.437Z,61.4
2019-04-16T08:12:34.341Z,61.4
2019-04-16T08:13:08.837Z,61.4
2019-04-16T08:13:59.704Z,61.4
2019-04-16T08:14:49.157Z,61.4
2019-04-16T08:15:39.636Z,61.4
2019-04-16T08:16:29.559Z,61.4
2019-04-16T08:17:19.401Z,61.4
2019-04-16T08:18:09.465Z,61.4
2019-04-16T08:18:59.017Z,61.4
2019-04-16T08:19:58.071Z,61.4
2019-04-16T08:20:39.625Z,61.4
2019-04-16T08:21:29.365Z,61.4
2019-04-16T08:22:21.545Z,61.4
2019-04-16T08:23:10.122Z,61.4
2019-04-16T08:24:00.419Z,61.4
2019-04-16T08:24:49.137Z,61.4
2019-04-16T08:25:39.415Z,61.4
2019-04-16T08:26:29.742Z,61.4
2019-04-16T08:27:23.834Z,61.4
2019-04-16T08:28:12.045Z,61.3
2019-04-16T08:29:01.158Z,61.3
2019-04-16T08:29:49.455Z,61.3
2019-04-16T08:30:43.707Z,61.3
2019-04-16T08:31:30.097Z,61.3
2019-04-16T08:32:20.929Z,61.3
2019-04-16T08:33:14.678Z,61.3
2019-04-16T08:34:00.514Z,61.3
2019-04-16T08:34:50.694Z,61.4
2019-04-16T08:35:40.684Z,61.4
2019-04-16T08:36:30.191Z,61.4
2019-04-16T08:37:20.820Z,61.4
2019-04-16T08:38:11.129Z,61.5
2019-04-16T08:39:07.542Z,61.6
2019-04-16T08:39:50.986Z,61.7
2019-04-16T08:40:45.744Z,61.8
2019-04-16T08:41:31.114Z,61.8
2019-04-16T08:42:45.606Z,61.9
2019-04-16T08:43:11.687Z,61.9
2019-04-16T08:44:12.221Z,61.9
2019-04-16T08:44:51.418Z,62
2019-04-16T08:45:44.486Z,62
2019-04-16T08:46:32.509Z,62
2019-04-16T08:47:21.807Z,62
2019-04-16T08:48:21.492Z,62
2019-04-16T08:49:01.706Z,62.1
2019-04-16T08:49:58.658Z,62.1
2019-04-16T08:50:41.218Z,62.1
2019-04-16T08:51:40.989Z,62.1
2019-04-16T08:52:22.199Z,62.1
2019-04-16T08:53:17.731Z,62.1
2019-04-16T08:54:01.741Z,62.1
2019-04-16T08:54:58.228Z,62.2
2019-04-16T08:55:42.170Z,62.1
2019-04-16T08:56:32.203Z,62.1
2019-04-16T08:57:21.532Z,62.2
2019-04-16T08:58:16.080Z,62.2
2019-04-16T08:59:12.648Z,62.3
2019-04-16T08:59:51.650Z,62.3
2019-04-16T09:00:49.245Z,62.3
2019-04-16T09:01:32.522Z,62.4
2019-04-16T09:02:28.792Z,62.4
2019-04-16T09:03:15.866Z,62.5
2019-04-16T09:04:07.017Z,62.6
2019-04-16T09:04:51.409Z,62.6
2019-04-16T09:05:45.930Z,62.6
2019-04-16T09:06:32.128Z,62.6
2019-04-16T09:07:25.554Z,62.8
2019-04-16T09:08:23.754Z,62.8
2019-04-16T09:09:28.812Z,62.9
2019-04-16T09:09:59.697Z,62.9
2019-04-16T09:10:46.627Z,63
2019-04-16T09:11:38.967Z,63.1
2019-04-16T09:12:23.981Z,63.1
2019-04-16T09:13:16.617Z,63.1
2019-04-16T09:14:03.255Z,63.1
2019-04-16T09:15:00.634Z,63.1
2019-04-16T09:15:58.051Z,63.2
2019-04-16T09:16:33.132Z,63.2
2019-04-16T09:17:23.464Z,63.2
2019-04-16T09:18:13.521Z,63.2
2019-04-16T09:19:03.537Z,63.2
2019-04-16T09:19:53.086Z,63.2
2019-04-16T09:20:44.236Z,63.3
2019-04-16T09:21:34.069Z,63.2
2019-04-16T09:22:24.107Z,63.3
2019-04-16T09:23:14.561Z,63.3
2019-04-16T09:24:14.026Z,63.3
2019-04-16T09:24:54.587Z,63.3
2019-04-16T09:25:50.491Z,63.3
2019-04-16T09:26:49.119Z,63.3
2019-04-16T09:27:35.054Z,63.4
2019-04-16T09:28:34.531Z,63.4
2019-04-16T09:29:14.454Z,63.6
2019-04-16T09:29:53.911Z,63.6
2019-04-16T09:30:51.216Z,63.6
2019-04-16T09:31:34.512Z,63.8
2019-04-16T09:32:31.114Z,63.8
2019-04-16T09:33:14.539Z,63.9
2019-04-16T09:34:11.658Z,63.9
2019-04-16T09:35:20.231Z,64.1
2019-04-16T09:35:48.451Z,64.3
2019-04-16T09:36:34.598Z,64.3
2019-04-16T09:37:31.747Z,64.4
2019-04-16T09:38:17.338Z,64.5
2019-04-16T09:39:05.442Z,64.6
2019-04-16T09:39:55.654Z,64.7
2019-04-16T09:40:48.730Z,64.8
2019-04-16T09:41:36.031Z,64.9
2019-04-16T09:42:25.607Z,64.9
2019-04-16T09:43:22.979Z,64.9
2019-04-16T09:44:05.430Z,65
2019-04-16T09:44:55.473Z,65.1
2019-04-16T09:45:45.859Z,65.1
2019-04-16T09:47:06.149Z,65.2
2019-04-16T09:47:25.643Z,65.2
2019-04-16T09:48:16.160Z,65.3
2019-04-16T09:49:10.307Z,65.3
2019-04-16T09:49:55.817Z,65.3
2019-04-16T09:50:52.462Z,65.3
2019-04-16T09:51:36.240Z,65.3
2019-04-16T09:52:28.667Z,65.3
2019-04-16T09:53:16.807Z,65.3
2019-04-16T09:54:06.770Z,65.4
2019-04-16T09:54:56.464Z,65.4
2019-04-16T09:55:52.758Z,65.5
2019-04-16T09:56:36.632Z,65.6
2019-04-16T09:57:34.661Z,65.6
2019-04-16T09:58:16.761Z,65.6
2019-04-16T09:59:06.544Z,65.6
2019-04-16T09:59:56.814Z,65.7
2019-04-16T10:00:49.517Z,65.7
2019-04-16T10:01:36.997Z,65.7
2019-04-16T10:02:27.212Z,65.7
2019-04-16T10:03:17.678Z,65.7
2019-04-16T10:06:01.184Z,65.6
2019-04-16T10:06:50.951Z,65.7
2019-04-16T10:07:44.734Z,65.7
2019-04-16T10:08:33.895Z,65.7
2019-04-16T10:09:27.174Z,65.6
2019-04-16T10:10:11.340Z,65.7
2019-04-16T10:11:10.529Z,65.6
2019-04-16T10:11:51.857Z,65.6
2019-04-16T10:12:41.846Z,65.6
2019-04-16T10:13:40.470Z,65.7
2019-04-16T10:14:21.720Z,65.6
2019-04-16T10:15:11.606Z,65.6
2019-04-16T10:16:01.854Z,65.6
2019-04-16T10:16:51.782Z,65.6
2019-04-16T10:17:41.841Z,65.6
2019-04-16T10:18:38.590Z,65.6
2019-04-16T10:19:26.488Z,65.6
2019-04-16T10:20:12.696Z,65.6
2019-04-16T10:21:01.850Z,65.6
2019-04-16T10:21:58.632Z,65.6
2019-04-16T10:22:42.027Z,65.6
2019-04-16T10:23:32.666Z,65.6
2019-04-16T10:24:22.511Z,65.6
2019-04-16T10:25:12.757Z,65.6
2019-04-16T10:26:02.444Z,65.6
2019-04-16T10:26:52.353Z,65.6
2019-04-16T10:27:42.660Z,65.6
2019-04-16T10:28:38.552Z,65.6
2019-04-16T10:29:23.442Z,65.6
2019-04-16T10:30:12.748Z,65.6
2019-04-16T10:31:02.924Z,65.6
2019-04-16T10:31:53.203Z,65.6
2019-04-16T10:32:43.193Z,65.6
2019-04-16T10:33:33.028Z,65.6
2019-04-16T10:34:23.448Z,65.6
2019-04-16T10:35:13.414Z,65.6
2019-04-16T10:36:10.080Z,65.5
2019-04-16T10:36:52.935Z,65.5
2019-04-16T10:37:43.341Z,65.5
2019-04-16T10:38:33.484Z,65.5
2019-04-16T10:39:23.967Z,65.5
2019-04-16T10:40:13.961Z,65.5
2019-04-16T10:41:03.526Z,65.5
2019-04-16T10:41:56.236Z,65.5
2019-04-16T10:42:43.784Z,65.5
2019-04-16T10:43:47.914Z,65.5
2019-04-16T10:44:23.320Z,65.4
2019-04-16T10:45:13.692Z,65.5
2019-04-16T10:46:04.264Z,65.4
2019-04-16T10:46:54.134Z,65.4
2019-04-16T10:47:44.231Z,65.4
2019-04-16T10:48:34.489Z,65.4
2019-04-16T10:49:24.011Z,65.4
2019-04-16T10:50:12.964Z,65.4
2019-04-16T10:51:04.717Z,65.4
2019-04-16T10:51:54.722Z,65.4
2019-04-16T10:52:44.767Z,65.4
2019-04-16T10:53:33.718Z,65.4
2019-04-16T10:54:24.056Z,65.4
2019-04-16T10:55:20.399Z,65.4
2019-04-16T10:56:05.106Z,65.4
2019-04-16T10:57:01.558Z,65.4
2019-04-16T10:57:44.707Z,65.4
2019-04-16T10:58:34.865Z,65.4
2019-04-16T10:59:24.939Z,65.4
2019-04-16T11:00:14.737Z,65.4
2019-04-16T11:01:05.458Z,65.4
2019-04-16T11:01:55.098Z,65.4
2019-04-16T11:02:44.735Z,65.4
2019-04-16T11:03:39.653Z,65.3
2019-04-16T11:04:25.790Z,65.3
2019-04-16T11:05:22.812Z,65.3
2019-04-16T11:06:05.545Z,65.3
2019-04-16T11:06:55.595Z,65.3
2019-04-16T11:07:46.155Z,65.3
2019-04-16T11:08:36.517Z,65.3
2019-04-16T11:09:26.018Z,65.3
2019-04-16T11:10:16.725Z,65.3
2019-04-16T11:11:05.859Z,65.3
2019-04-16T11:11:55.838Z,65.3
2019-04-16T11:12:46.518Z,65.3
2019-04-16T11:13:35.970Z,65.3
2019-04-16T11:14:25.891Z,65.3
2019-04-16T11:15:15.892Z,65.3
2019-04-16T11:16:06.065Z,65.3